sensor_id;sensor_type;location;lat;lon;timestamp;P1;durP1;ratioP1;P2;durP2;ratioP2
67640;SDS011;54434;50.096;20.082;2022-09-12T00:00:42;12.80;;;7.20;;
67640;SDS011;54434;50.096;20.082;2022-09-12T00:03:39;12.60;;;7.90;;
67640;SDS011;54434;50.096;20.082;2022-09-12T00:06:19;12.60;;;7.30;;
67640;SDS011;54434;50.096;20.082;2022-09-12T00:08:59;13.60;;;7.30;;
67640;SDS011;54434;50.096;20.082;2022-09-12T00:11:39;13.20;;;7.80;;
67640;SDS011;54434;50.096;20.082;2022-09-12T00:14:18;12.40;;;8.00;;
67640;SDS011;54434;50.096;20.082;2022-09-12T00:16:57;12.80;;;7.70;;
67640;SDS011;54434;50.096;20.082;2022-09-12T00:19:33;12.70;;;8.00;;
67640;SDS011;54434;50.096;20.082;2022-09-12T00:22:09;11.90;;;8.30;;
67640;SDS011;54434;50.096;20.082;2022-09-12T00:24:45;13.40;;;9.30;;
67640;SDS011;54434;50.096;20.082;2022-09-12T00:27:21;13.00;;;9.00;;
67640;SDS011;54434;50.096;20.082;2022-09-12T00:29:57;16.90;;;8.70;;
67640;SDS011;54434;50.096;20.082;2022-09-12T00:35:10;16.00;;;9.10;;
67640;SDS011;54434;50.096;20.082;2022-09-12T00:37:46;15.50;;;8.40;;
67640;SDS011;54434;50.096;20.082;2022-09-12T00:40:22;14.60;;;9.20;;
67640;SDS011;54434;50.096;20.082;2022-09-12T00:42:59;13.40;;;9.20;;
67640;SDS011;54434;50.096;20.082;2022-09-12T00:45:35;13.60;;;8.50;;
67640;SDS011;54434;50.096;20.082;2022-09-12T00:48:20;19.00;;;9.70;;
67640;SDS011;54434;50.096;20.082;2022-09-12T00:51:04;13.30;;;8.70;;
67640;SDS011;54434;50.096;20.082;2022-09-12T00:53:44;14.30;;;8.70;;
67640;SDS011;54434;50.096;20.082;2022-09-12T00:56:22;13.60;;;8.90;;
67640;SDS011;54434;50.096;20.082;2022-09-12T00:59:03;13.50;;;9.10;;
67640;SDS011;54434;50.096;20.082;2022-09-12T01:04:19;14.20;;;9.00;;
67640;SDS011;54434;50.096;20.082;2022-09-12T01:06:58;13.70;;;9.10;;
67640;SDS011;54434;50.096;20.082;2022-09-12T01:09:38;15.40;;;9.30;;
67640;SDS011;54434;50.096;20.082;2022-09-12T01:12:15;13.90;;;9.30;;
67640;SDS011;54434;50.096;20.082;2022-09-12T01:14:52;14.80;;;9.50;;
67640;SDS011;54434;50.096;20.082;2022-09-12T01:17:33;15.70;;;9.60;;
67640;SDS011;54434;50.096;20.082;2022-09-12T01:20:42;13.80;;;9.30;;
67640;SDS011;54434;50.096;20.082;2022-09-12T01:27:52;14.00;;;9.00;;
67640;SDS011;54434;50.096;20.082;2022-09-12T01:30:48;15.70;;;8.90;;
67640;SDS011;54434;50.096;20.082;2022-09-12T01:33:45;12.60;;;8.30;;
67640;SDS011;54434;50.096;20.082;2022-09-12T01:36:50;12.50;;;8.40;;
67640;SDS011;54434;50.096;20.082;2022-09-12T01:39:42;14.80;;;8.70;;
67640;SDS011;54434;50.096;20.082;2022-09-12T01:42:32;11.80;;;8.10;;
67640;SDS011;54434;50.096;20.082;2022-09-12T01:45:19;12.70;;;8.40;;
67640;SDS011;54434;50.096;20.082;2022-09-12T01:48:06;13.00;;;8.40;;
67640;SDS011;54434;50.096;20.082;2022-09-12T01:50:52;13.30;;;8.30;;
67640;SDS011;54434;50.096;20.082;2022-09-12T01:53:40;12.80;;;8.40;;
67640;SDS011;54434;50.096;20.082;2022-09-12T01:59:02;10.80;;;7.10;;
67640;SDS011;54434;50.096;20.082;2022-09-12T02:01:48;13.00;;;8.00;;
67640;SDS011;54434;50.096;20.082;2022-09-12T02:04:31;12.00;;;7.40;;
67640;SDS011;54434;50.096;20.082;2022-09-12T02:07:19;12.00;;;7.20;;
67640;SDS011;54434;50.096;20.082;2022-09-12T02:10:04;10.70;;;7.30;;
67640;SDS011;54434;50.096;20.082;2022-09-12T02:12:49;11.60;;;6.90;;
67640;SDS011;54434;50.096;20.082;2022-09-12T02:15:33;11.30;;;7.60;;
67640;SDS011;54434;50.096;20.082;2022-09-12T02:18:13;10.70;;;7.90;;
67640;SDS011;54434;50.096;20.082;2022-09-12T02:20:52;11.20;;;7.10;;
67640;SDS011;54434;50.096;20.082;2022-09-12T02:23:31;10.60;;;7.40;;
67640;SDS011;54434;50.096;20.082;2022-09-12T02:28:54;12.20;;;6.80;;
67640;SDS011;54434;50.096;20.082;2022-09-12T02:31:36;12.00;;;7.40;;
67640;SDS011;54434;50.096;20.082;2022-09-12T02:34:31;10.90;;;7.00;;
67640;SDS011;54434;50.096;20.082;2022-09-12T02:37:31;11.10;;;7.10;;
67640;SDS011;54434;50.096;20.082;2022-09-12T02:40:16;11.90;;;6.60;;
67640;SDS011;54434;50.096;20.082;2022-09-12T02:42:53;11.80;;;7.10;;
67640;SDS011;54434;50.096;20.082;2022-09-12T02:45:30;12.60;;;7.20;;
67640;SDS011;54434;50.096;20.082;2022-09-12T02:48:11;12.30;;;6.90;;
67640;SDS011;54434;50.096;20.082;2022-09-12T02:50:51;12.60;;;7.00;;
67640;SDS011;54434;50.096;20.082;2022-09-12T02:53:28;13.30;;;7.30;;
67640;SDS011;54434;50.096;20.082;2022-09-12T02:56:10;12.00;;;7.20;;
67640;SDS011;54434;50.096;20.082;2022-09-12T02:58:50;12.90;;;7.50;;
67640;SDS011;54434;50.096;20.082;2022-09-12T03:01:40;13.90;;;8.30;;
67640;SDS011;54434;50.096;20.082;2022-09-12T03:04:50;12.90;;;8.50;;
67640;SDS011;54434;50.096;20.082;2022-09-12T03:08:06;13.60;;;9.40;;
67640;SDS011;54434;50.096;20.082;2022-09-12T03:11:20;14.90;;;9.80;;
67640;SDS011;54434;50.096;20.082;2022-09-12T03:14:16;16.60;;;11.00;;
67640;SDS011;54434;50.096;20.082;2022-09-12T03:17:16;17.50;;;11.60;;
67640;SDS011;54434;50.096;20.082;2022-09-12T03:20:04;17.00;;;11.50;;
67640;SDS011;54434;50.096;20.082;2022-09-12T03:22:52;16.10;;;11.70;;
67640;SDS011;54434;50.096;20.082;2022-09-12T03:25:36;19.80;;;13.70;;
67640;SDS011;54434;50.096;20.082;2022-09-12T03:28:18;19.00;;;12.10;;
67640;SDS011;54434;50.096;20.082;2022-09-12T03:30:55;17.10;;;11.80;;
67640;SDS011;54434;50.096;20.082;2022-09-12T03:33:31;15.50;;;11.30;;
67640;SDS011;54434;50.096;20.082;2022-09-12T03:36:13;23.70;;;11.80;;
67640;SDS011;54434;50.096;20.082;2022-09-12T03:38:52;16.70;;;11.90;;
67640;SDS011;54434;50.096;20.082;2022-09-12T03:41:28;18.90;;;11.70;;
67640;SDS011;54434;50.096;20.082;2022-09-12T03:44:05;18.80;;;11.80;;
67640;SDS011;54434;50.096;20.082;2022-09-12T03:46:40;18.80;;;12.90;;
67640;SDS011;54434;50.096;20.082;2022-09-12T03:49:17;22.00;;;13.40;;
67640;SDS011;54434;50.096;20.082;2022-09-12T03:51:53;21.40;;;14.50;;
67640;SDS011;54434;50.096;20.082;2022-09-12T03:54:29;23.80;;;13.60;;
67640;SDS011;54434;50.096;20.082;2022-09-12T03:57:05;23.10;;;14.70;;
67640;SDS011;54434;50.096;20.082;2022-09-12T03:59:41;24.70;;;15.00;;
67640;SDS011;54434;50.096;20.082;2022-09-12T04:02:17;24.00;;;15.50;;
67640;SDS011;54434;50.096;20.082;2022-09-12T04:04:53;24.50;;;15.40;;
67640;SDS011;54434;50.096;20.082;2022-09-12T04:07:29;21.90;;;15.10;;
67640;SDS011;54434;50.096;20.082;2022-09-12T04:10:06;24.00;;;15.50;;
67640;SDS011;54434;50.096;20.082;2022-09-12T04:12:43;21.10;;;14.00;;
67640;SDS011;54434;50.096;20.082;2022-09-12T04:15:19;24.30;;;14.30;;
67640;SDS011;54434;50.096;20.082;2022-09-12T04:17:55;23.50;;;14.50;;
67640;SDS011;54434;50.096;20.082;2022-09-12T04:20:37;20.30;;;13.70;;
67640;SDS011;54434;50.096;20.082;2022-09-12T04:23:14;23.30;;;14.10;;
67640;SDS011;54434;50.096;20.082;2022-09-12T04:25:58;21.70;;;13.00;;
67640;SDS011;54434;50.096;20.082;2022-09-12T04:28:36;22.80;;;13.90;;
67640;SDS011;54434;50.096;20.082;2022-09-12T04:31:16;23.90;;;14.80;;
67640;SDS011;54434;50.096;20.082;2022-09-12T04:34:00;23.90;;;14.20;;
67640;SDS011;54434;50.096;20.082;2022-09-12T04:36:38;25.00;;;16.20;;
67640;SDS011;54434;50.096;20.082;2022-09-12T04:39:14;26.10;;;16.20;;
67640;SDS011;54434;50.096;20.082;2022-09-12T04:41:50;26.10;;;14.80;;
67640;SDS011;54434;50.096;20.082;2022-09-12T04:44:26;26.20;;;15.30;;
67640;SDS011;54434;50.096;20.082;2022-09-12T04:47:03;24.00;;;15.70;;
67640;SDS011;54434;50.096;20.082;2022-09-12T04:49:39;23.50;;;16.50;;
67640;SDS011;54434;50.096;20.082;2022-09-12T04:52:15;21.80;;;14.70;;
67640;SDS011;54434;50.096;20.082;2022-09-12T04:54:52;19.80;;;14.10;;
67640;SDS011;54434;50.096;20.082;2022-09-12T04:57:28;18.40;;;13.10;;
67640;SDS011;54434;50.096;20.082;2022-09-12T05:00:08;19.60;;;13.60;;
67640;SDS011;54434;50.096;20.082;2022-09-12T05:02:47;16.50;;;11.80;;
67640;SDS011;54434;50.096;20.082;2022-09-12T05:05:23;15.90;;;9.80;;
67640;SDS011;54434;50.096;20.082;2022-09-12T05:07:59;15.90;;;10.20;;
67640;SDS011;54434;50.096;20.082;2022-09-12T05:10:35;13.50;;;9.10;;
67640;SDS011;54434;50.096;20.082;2022-09-12T05:13:11;15.30;;;7.70;;
67640;SDS011;54434;50.096;20.082;2022-09-12T05:15:56;9.80;;;6.60;;
67640;SDS011;54434;50.096;20.082;2022-09-12T05:18:35;9.80;;;6.60;;
67640;SDS011;54434;50.096;20.082;2022-09-12T05:21:14;10.40;;;6.80;;
67640;SDS011;54434;50.096;20.082;2022-09-12T05:23:55;12.50;;;5.70;;
67640;SDS011;54434;50.096;20.082;2022-09-12T05:26:32;11.20;;;6.10;;
67640;SDS011;54434;50.096;20.082;2022-09-12T05:29:09;8.90;;;5.30;;
67640;SDS011;54434;50.096;20.082;2022-09-12T05:31:45;9.60;;;5.70;;
67640;SDS011;54434;50.096;20.082;2022-09-12T05:34:22;11.00;;;5.60;;
67640;SDS011;54434;50.096;20.082;2022-09-12T05:36:59;10.50;;;5.80;;
67640;SDS011;54434;50.096;20.082;2022-09-12T05:39:35;13.40;;;6.20;;
67640;SDS011;54434;50.096;20.082;2022-09-12T05:42:11;8.10;;;5.50;;
67640;SDS011;54434;50.096;20.082;2022-09-12T05:44:47;8.40;;;5.80;;
67640;SDS011;54434;50.096;20.082;2022-09-12T05:47:23;8.20;;;5.50;;
67640;SDS011;54434;50.096;20.082;2022-09-12T05:49:59;8.50;;;5.20;;
67640;SDS011;54434;50.096;20.082;2022-09-12T05:52:42;7.90;;;5.00;;
67640;SDS011;54434;50.096;20.082;2022-09-12T05:55:18;7.40;;;4.70;;
67640;SDS011;54434;50.096;20.082;2022-09-12T05:57:55;8.00;;;4.70;;
67640;SDS011;54434;50.096;20.082;2022-09-12T06:00:30;9.60;;;4.60;;
67640;SDS011;54434;50.096;20.082;2022-09-12T06:03:07;9.00;;;4.80;;
67640;SDS011;54434;50.096;20.082;2022-09-12T06:05:43;8.30;;;3.90;;
67640;SDS011;54434;50.096;20.082;2022-09-12T06:08:22;6.10;;;3.50;;
67640;SDS011;54434;50.096;20.082;2022-09-12T06:11:03;6.00;;;3.60;;
67640;SDS011;54434;50.096;20.082;2022-09-12T06:13:41;8.40;;;4.00;;
67640;SDS011;54434;50.096;20.082;2022-09-12T06:16:19;7.00;;;3.60;;
67640;SDS011;54434;50.096;20.082;2022-09-12T06:18:58;5.90;;;3.40;;
67640;SDS011;54434;50.096;20.082;2022-09-12T06:21:35;6.50;;;3.20;;
67640;SDS011;54434;50.096;20.082;2022-09-12T06:24:12;6.10;;;3.10;;
67640;SDS011;54434;50.096;20.082;2022-09-12T06:26:48;5.40;;;3.00;;
67640;SDS011;54434;50.096;20.082;2022-09-12T06:29:27;5.30;;;3.10;;
67640;SDS011;54434;50.096;20.082;2022-09-12T06:32:05;6.30;;;3.10;;
67640;SDS011;54434;50.096;20.082;2022-09-12T06:34:43;6.10;;;2.80;;
67640;SDS011;54434;50.096;20.082;2022-09-12T06:37:20;5.60;;;2.90;;
67640;SDS011;54434;50.096;20.082;2022-09-12T06:39:56;9.30;;;2.80;;
67640;SDS011;54434;50.096;20.082;2022-09-12T06:42:34;5.10;;;2.70;;
67640;SDS011;54434;50.096;20.082;2022-09-12T06:45:12;7.20;;;3.10;;
67640;SDS011;54434;50.096;20.082;2022-09-12T06:47:48;5.40;;;2.60;;
67640;SDS011;54434;50.096;20.082;2022-09-12T06:50:24;7.40;;;2.90;;
67640;SDS011;54434;50.096;20.082;2022-09-12T06:53:00;7.30;;;2.60;;
67640;SDS011;54434;50.096;20.082;2022-09-12T06:55:36;6.20;;;2.60;;
67640;SDS011;54434;50.096;20.082;2022-09-12T06:58:12;6.80;;;2.60;;
67640;SDS011;54434;50.096;20.082;2022-09-12T07:00:48;5.10;;;2.60;;
67640;SDS011;54434;50.096;20.082;2022-09-12T07:03:31;5.60;;;2.50;;
67640;SDS011;54434;50.096;20.082;2022-09-12T07:06:10;5.90;;;2.50;;
67640;SDS011;54434;50.096;20.082;2022-09-12T07:08:47;5.20;;;2.60;;
67640;SDS011;54434;50.096;20.082;2022-09-12T07:11:26;3.90;;;2.50;;
67640;SDS011;54434;50.096;20.082;2022-09-12T07:14:05;8.20;;;2.50;;
67640;SDS011;54434;50.096;20.082;2022-09-12T07:16:43;4.70;;;2.50;;
67640;SDS011;54434;50.096;20.082;2022-09-12T07:19:19;5.00;;;2.30;;
67640;SDS011;54434;50.096;20.082;2022-09-12T07:21:56;6.10;;;2.40;;
67640;SDS011;54434;50.096;20.082;2022-09-12T07:24:32;5.40;;;2.20;;
67640;SDS011;54434;50.096;20.082;2022-09-12T07:27:09;7.70;;;2.40;;
67640;SDS011;54434;50.096;20.082;2022-09-12T07:29:45;4.80;;;2.10;;
67640;SDS011;54434;50.096;20.082;2022-09-12T07:32:21;7.60;;;2.30;;
67640;SDS011;54434;50.096;20.082;2022-09-12T07:34:57;6.10;;;2.00;;
67640;SDS011;54434;50.096;20.082;2022-09-12T07:37:33;3.50;;;2.10;;
67640;SDS011;54434;50.096;20.082;2022-09-12T07:40:10;4.30;;;2.10;;
67640;SDS011;54434;50.096;20.082;2022-09-12T07:42:46;6.20;;;2.20;;
67640;SDS011;54434;50.096;20.082;2022-09-12T07:45:22;6.20;;;2.30;;
67640;SDS011;54434;50.096;20.082;2022-09-12T07:47:58;4.70;;;2.10;;
67640;SDS011;54434;50.096;20.082;2022-09-12T07:50:35;5.10;;;2.30;;
67640;SDS011;54434;50.096;20.082;2022-09-12T07:53:17;5.10;;;2.50;;
67640;SDS011;54434;50.096;20.082;2022-09-12T07:55:56;6.80;;;2.70;;
67640;SDS011;54434;50.096;20.082;2022-09-12T07:58:33;4.30;;;2.50;;
67640;SDS011;54434;50.096;20.082;2022-09-12T08:01:13;5.20;;;2.40;;
67640;SDS011;54434;50.096;20.082;2022-09-12T08:03:54;6.30;;;2.60;;
67640;SDS011;54434;50.096;20.082;2022-09-12T08:06:32;5.50;;;2.80;;
67640;SDS011;54434;50.096;20.082;2022-09-12T08:09:09;9.10;;;3.10;;
67640;SDS011;54434;50.096;20.082;2022-09-12T08:11:47;7.50;;;3.10;;
67640;SDS011;54434;50.096;20.082;2022-09-12T08:14:23;4.90;;;2.40;;
67640;SDS011;54434;50.096;20.082;2022-09-12T08:16:59;5.50;;;2.80;;
67640;SDS011;54434;50.096;20.082;2022-09-12T08:19:35;6.40;;;2.50;;
67640;SDS011;54434;50.096;20.082;2022-09-12T08:22:11;5.90;;;2.60;;
67640;SDS011;54434;50.096;20.082;2022-09-12T08:24:47;7.40;;;3.00;;
67640;SDS011;54434;50.096;20.082;2022-09-12T08:27:24;5.60;;;2.30;;
67640;SDS011;54434;50.096;20.082;2022-09-12T08:30:00;7.30;;;2.30;;
67640;SDS011;54434;50.096;20.082;2022-09-12T08:32:38;4.90;;;2.20;;
67640;SDS011;54434;50.096;20.082;2022-09-12T08:35:16;4.40;;;2.10;;
67640;SDS011;54434;50.096;20.082;2022-09-12T08:37:52;4.30;;;2.00;;
67640;SDS011;54434;50.096;20.082;2022-09-12T08:40:28;3.80;;;2.20;;
67640;SDS011;54434;50.096;20.082;2022-09-12T08:43:14;5.20;;;2.10;;
67640;SDS011;54434;50.096;20.082;2022-09-12T08:46:09;4.50;;;2.20;;
67640;SDS011;54434;50.096;20.082;2022-09-12T08:48:49;8.80;;;2.30;;
67640;SDS011;54434;50.096;20.082;2022-09-12T08:51:29;6.00;;;2.30;;
67640;SDS011;54434;50.096;20.082;2022-09-12T08:54:11;5.10;;;2.30;;
67640;SDS011;54434;50.096;20.082;2022-09-12T08:57:00;5.80;;;2.80;;
67640;SDS011;54434;50.096;20.082;2022-09-12T08:59:40;6.40;;;2.30;;
67640;SDS011;54434;50.096;20.082;2022-09-12T09:02:39;7.20;;;2.30;;
67640;SDS011;54434;50.096;20.082;2022-09-12T09:05:35;4.20;;;2.20;;
67640;SDS011;54434;50.096;20.082;2022-09-12T09:08:42;6.80;;;2.50;;
67640;SDS011;54434;50.096;20.082;2022-09-12T09:11:41;4.50;;;2.40;;
67640;SDS011;54434;50.096;20.082;2022-09-12T09:15:08;4.30;;;2.30;;
67640;SDS011;54434;50.096;20.082;2022-09-12T09:17:59;8.80;;;2.70;;
67640;SDS011;54434;50.096;20.082;2022-09-12T09:20:47;4.50;;;2.40;;
67640;SDS011;54434;50.096;20.082;2022-09-12T09:23:30;8.70;;;2.20;;
67640;SDS011;54434;50.096;20.082;2022-09-12T09:26:12;5.40;;;2.40;;
67640;SDS011;54434;50.096;20.082;2022-09-12T09:28:53;4.50;;;2.80;;
67640;SDS011;54434;50.096;20.082;2022-09-12T09:31:34;7.10;;;2.50;;
67640;SDS011;54434;50.096;20.082;2022-09-12T09:34:19;6.50;;;2.40;;
67640;SDS011;54434;50.096;20.082;2022-09-12T09:37:05;3.40;;;1.90;;
67640;SDS011;54434;50.096;20.082;2022-09-12T09:39:55;5.40;;;1.90;;
67640;SDS011;54434;50.096;20.082;2022-09-12T09:42:48;4.70;;;2.30;;
67640;SDS011;54434;50.096;20.082;2022-09-12T09:45:29;4.90;;;2.20;;
67640;SDS011;54434;50.096;20.082;2022-09-12T09:48:16;3.60;;;2.30;;
67640;SDS011;54434;50.096;20.082;2022-09-12T09:50:58;5.40;;;2.10;;
67640;SDS011;54434;50.096;20.082;2022-09-12T09:53:42;5.20;;;2.20;;
67640;SDS011;54434;50.096;20.082;2022-09-12T09:56:30;4.30;;;2.10;;
67640;SDS011;54434;50.096;20.082;2022-09-12T09:59:17;6.00;;;2.00;;
67640;SDS011;54434;50.096;20.082;2022-09-12T10:02:02;3.80;;;2.10;;
67640;SDS011;54434;50.096;20.082;2022-09-12T10:04:58;5.10;;;2.00;;
67640;SDS011;54434;50.096;20.082;2022-09-12T10:07:35;4.60;;;2.20;;
67640;SDS011;54434;50.096;20.082;2022-09-12T10:10:19;5.70;;;2.00;;
67640;SDS011;54434;50.096;20.082;2022-09-12T10:13:26;4.60;;;1.90;;
67640;SDS011;54434;50.096;20.082;2022-09-12T10:16:24;4.90;;;1.90;;
67640;SDS011;54434;50.096;20.082;2022-09-12T10:19:03;4.40;;;2.00;;
67640;SDS011;54434;50.096;20.082;2022-09-12T10:21:44;5.20;;;2.00;;
67640;SDS011;54434;50.096;20.082;2022-09-12T10:24:27;3.70;;;2.00;;
67640;SDS011;54434;50.096;20.082;2022-09-12T10:29:54;4.30;;;2.00;;
67640;SDS011;54434;50.096;20.082;2022-09-12T10:32:40;3.40;;;1.70;;
67640;SDS011;54434;50.096;20.082;2022-09-12T10:35:22;4.00;;;1.70;;
67640;SDS011;54434;50.096;20.082;2022-09-12T10:38:05;3.10;;;1.80;;
67640;SDS011;54434;50.096;20.082;2022-09-12T10:40:56;3.30;;;2.00;;
67640;SDS011;54434;50.096;20.082;2022-09-12T10:43:38;6.10;;;2.10;;
67640;SDS011;54434;50.096;20.082;2022-09-12T10:46:31;3.20;;;1.90;;
67640;SDS011;54434;50.096;20.082;2022-09-12T10:49:27;2.80;;;1.70;;
67640;SDS011;54434;50.096;20.082;2022-09-12T10:52:23;3.80;;;1.80;;
67640;SDS011;54434;50.096;20.082;2022-09-12T10:55:00;4.70;;;1.90;;
67640;SDS011;54434;50.096;20.082;2022-09-12T10:58:03;3.80;;;2.30;;
67640;SDS011;54434;50.096;20.082;2022-09-12T11:01:01;4.40;;;1.80;;
67640;SDS011;54434;50.096;20.082;2022-09-12T11:04:04;3.60;;;1.80;;
67640;SDS011;54434;50.096;20.082;2022-09-12T11:07:04;3.10;;;1.80;;
67640;SDS011;54434;50.096;20.082;2022-09-12T11:10:02;3.20;;;1.70;;
67640;SDS011;54434;50.096;20.082;2022-09-12T11:12:55;6.30;;;2.10;;
67640;SDS011;54434;50.096;20.082;2022-09-12T11:16:05;4.30;;;2.10;;
67640;SDS011;54434;50.096;20.082;2022-09-12T11:22:36;4.90;;;1.90;;
67640;SDS011;54434;50.096;20.082;2022-09-12T11:25:33;4.80;;;2.10;;
67640;SDS011;54434;50.096;20.082;2022-09-12T11:28:36;3.00;;;1.80;;
67640;SDS011;54434;50.096;20.082;2022-09-12T11:31:45;3.10;;;1.90;;
67640;SDS011;54434;50.096;20.082;2022-09-12T11:34:47;5.80;;;1.90;;
67640;SDS011;54434;50.096;20.082;2022-09-12T11:40:36;3.70;;;1.90;;
67640;SDS011;54434;50.096;20.082;2022-09-12T11:43:27;3.60;;;1.80;;
67640;SDS011;54434;50.096;20.082;2022-09-12T11:46:16;4.40;;;1.70;;
67640;SDS011;54434;50.096;20.082;2022-09-12T11:49:00;6.40;;;1.60;;
67640;SDS011;54434;50.096;20.082;2022-09-12T11:51:50;4.30;;;2.10;;
67640;SDS011;54434;50.096;20.082;2022-09-12T11:54:35;3.00;;;1.70;;
67640;SDS011;54434;50.096;20.082;2022-09-12T11:57:19;3.80;;;1.70;;
67640;SDS011;54434;50.096;20.082;2022-09-12T12:00:04;4.40;;;1.70;;
67640;SDS011;54434;50.096;20.082;2022-09-12T12:03:01;4.30;;;1.70;;
67640;SDS011;54434;50.096;20.082;2022-09-12T12:05:48;4.00;;;1.90;;
67640;SDS011;54434;50.096;20.082;2022-09-12T12:08:30;3.90;;;2.00;;
67640;SDS011;54434;50.096;20.082;2022-09-12T12:11:13;5.10;;;2.10;;
67640;SDS011;54434;50.096;20.082;2022-09-12T12:14:01;3.80;;;2.00;;
67640;SDS011;54434;50.096;20.082;2022-09-12T12:16:41;3.80;;;1.70;;
67640;SDS011;54434;50.096;20.082;2022-09-12T12:19:35;3.70;;;1.80;;
67640;SDS011;54434;50.096;20.082;2022-09-12T12:22:19;5.70;;;1.90;;
67640;SDS011;54434;50.096;20.082;2022-09-12T12:25:06;4.40;;;1.90;;
67640;SDS011;54434;50.096;20.082;2022-09-12T12:28:02;3.50;;;1.90;;
67640;SDS011;54434;50.096;20.082;2022-09-12T12:31:04;3.50;;;1.80;;
67640;SDS011;54434;50.096;20.082;2022-09-12T12:34:30;3.60;;;1.90;;
67640;SDS011;54434;50.096;20.082;2022-09-12T12:37:49;4.20;;;1.80;;
67640;SDS011;54434;50.096;20.082;2022-09-12T12:40:30;3.30;;;1.80;;
67640;SDS011;54434;50.096;20.082;2022-09-12T12:43:36;3.70;;;1.80;;
67640;SDS011;54434;50.096;20.082;2022-09-12T12:46:13;3.50;;;1.80;;
67640;SDS011;54434;50.096;20.082;2022-09-12T12:49:09;3.20;;;1.80;;
67640;SDS011;54434;50.096;20.082;2022-09-12T12:52:01;2.40;;;1.70;;
67640;SDS011;54434;50.096;20.082;2022-09-12T12:57:48;2.50;;;1.60;;
67640;SDS011;54434;50.096;20.082;2022-09-12T13:00:33;4.80;;;2.10;;
67640;SDS011;54434;50.096;20.082;2022-09-12T13:03:27;3.90;;;1.90;;
67640;SDS011;54434;50.096;20.082;2022-09-12T13:06:27;4.40;;;1.60;;
67640;SDS011;54434;50.096;20.082;2022-09-12T13:09:20;4.20;;;1.70;;
67640;SDS011;54434;50.096;20.082;2022-09-12T13:12:04;4.60;;;1.90;;
67640;SDS011;54434;50.096;20.082;2022-09-12T13:14:57;3.90;;;1.90;;
67640;SDS011;54434;50.096;20.082;2022-09-12T13:17:38;5.60;;;1.90;;
67640;SDS011;54434;50.096;20.082;2022-09-12T13:20:25;3.30;;;1.80;;
67640;SDS011;54434;50.096;20.082;2022-09-12T13:23:04;3.10;;;1.70;;
67640;SDS011;54434;50.096;20.082;2022-09-12T13:25:57;5.40;;;1.90;;
67640;SDS011;54434;50.096;20.082;2022-09-12T13:28:34;5.30;;;2.00;;
67640;SDS011;54434;50.096;20.082;2022-09-12T13:31:23;7.70;;;2.20;;
67640;SDS011;54434;50.096;20.082;2022-09-12T13:34:05;4.40;;;2.00;;
67640;SDS011;54434;50.096;20.082;2022-09-12T13:36:55;5.30;;;2.20;;
67640;SDS011;54434;50.096;20.082;2022-09-12T13:39:48;5.40;;;1.80;;
67640;SDS011;54434;50.096;20.082;2022-09-12T13:42:48;3.10;;;1.90;;
67640;SDS011;54434;50.096;20.082;2022-09-12T13:45:27;4.60;;;1.80;;
67640;SDS011;54434;50.096;20.082;2022-09-12T13:48:12;3.60;;;2.10;;
67640;SDS011;54434;50.096;20.082;2022-09-12T13:50:56;3.20;;;1.70;;
67640;SDS011;54434;50.096;20.082;2022-09-12T13:53:42;3.50;;;1.90;;
67640;SDS011;54434;50.096;20.082;2022-09-12T13:56:21;4.80;;;2.10;;
67640;SDS011;54434;50.096;20.082;2022-09-12T13:58:59;6.10;;;2.20;;
67640;SDS011;54434;50.096;20.082;2022-09-12T14:01:43;5.60;;;2.30;;
67640;SDS011;54434;50.096;20.082;2022-09-12T14:04:23;3.40;;;2.00;;
67640;SDS011;54434;50.096;20.082;2022-09-12T14:07:21;4.30;;;2.00;;
67640;SDS011;54434;50.096;20.082;2022-09-12T14:10:00;3.80;;;1.90;;
67640;SDS011;54434;50.096;20.082;2022-09-12T14:12:39;4.00;;;1.90;;
67640;SDS011;54434;50.096;20.082;2022-09-12T14:15:21;3.40;;;2.00;;
67640;SDS011;54434;50.096;20.082;2022-09-12T14:18:01;4.90;;;2.30;;
67640;SDS011;54434;50.096;20.082;2022-09-12T14:20:41;5.80;;;2.10;;
67640;SDS011;54434;50.096;20.082;2022-09-12T14:23:26;5.40;;;2.30;;
67640;SDS011;54434;50.096;20.082;2022-09-12T14:26:07;3.20;;;2.00;;
67640;SDS011;54434;50.096;20.082;2022-09-12T14:28:46;5.70;;;2.30;;
67640;SDS011;54434;50.096;20.082;2022-09-12T14:31:27;4.70;;;1.80;;
67640;SDS011;54434;50.096;20.082;2022-09-12T14:34:13;6.00;;;2.20;;
67640;SDS011;54434;50.096;20.082;2022-09-12T14:36:52;5.70;;;2.20;;
67640;SDS011;54434;50.096;20.082;2022-09-12T14:39:36;4.10;;;2.10;;
67640;SDS011;54434;50.096;20.082;2022-09-12T14:42:17;4.30;;;2.10;;
67640;SDS011;54434;50.096;20.082;2022-09-12T14:44:58;4.00;;;2.00;;
67640;SDS011;54434;50.096;20.082;2022-09-12T14:47:41;4.60;;;2.10;;
67640;SDS011;54434;50.096;20.082;2022-09-12T14:50:25;7.30;;;2.00;;
67640;SDS011;54434;50.096;20.082;2022-09-12T14:53:22;5.20;;;2.10;;
67640;SDS011;54434;50.096;20.082;2022-09-12T14:56:11;4.00;;;2.00;;
67640;SDS011;54434;50.096;20.082;2022-09-12T14:58:48;4.70;;;2.20;;
67640;SDS011;54434;50.096;20.082;2022-09-12T15:01:26;5.60;;;2.00;;
67640;SDS011;54434;50.096;20.082;2022-09-12T15:04:02;5.60;;;2.80;;
67640;SDS011;54434;50.096;20.082;2022-09-12T15:06:39;7.50;;;4.60;;
67640;SDS011;54434;50.096;20.082;2022-09-12T15:09:15;5.10;;;2.20;;
67640;SDS011;54434;50.096;20.082;2022-09-12T15:11:51;6.20;;;2.20;;
67640;SDS011;54434;50.096;20.082;2022-09-12T15:14:27;5.40;;;2.90;;
67640;SDS011;54434;50.096;20.082;2022-09-12T15:17:03;6.40;;;2.20;;
67640;SDS011;54434;50.096;20.082;2022-09-12T15:19:38;5.90;;;2.40;;
67640;SDS011;54434;50.096;20.082;2022-09-12T15:22:15;4.30;;;2.20;;
67640;SDS011;54434;50.096;20.082;2022-09-12T15:24:51;11.40;;;6.30;;
67640;SDS011;54434;50.096;20.082;2022-09-12T15:27:29;4.70;;;2.60;;
67640;SDS011;54434;50.096;20.082;2022-09-12T15:30:07;8.70;;;3.30;;
67640;SDS011;54434;50.096;20.082;2022-09-12T15:32:47;10.10;;;3.50;;
67640;SDS011;54434;50.096;20.082;2022-09-12T15:35:24;6.50;;;2.00;;
67640;SDS011;54434;50.096;20.082;2022-09-12T15:38:02;11.00;;;3.40;;
67640;SDS011;54434;50.096;20.082;2022-09-12T15:40:38;11.40;;;3.70;;
67640;SDS011;54434;50.096;20.082;2022-09-12T15:43:15;6.60;;;2.10;;
67640;SDS011;54434;50.096;20.082;2022-09-12T15:45:51;5.30;;;1.90;;
67640;SDS011;54434;50.096;20.082;2022-09-12T15:48:27;8.10;;;2.40;;
67640;SDS011;54434;50.096;20.082;2022-09-12T15:51:03;4.20;;;1.90;;
67640;SDS011;54434;50.096;20.082;2022-09-12T15:53:48;2.30;;;1.80;;
67640;SDS011;54434;50.096;20.082;2022-09-12T15:56:24;4.40;;;2.00;;
67640;SDS011;54434;50.096;20.082;2022-09-12T15:59:00;3.70;;;1.80;;
67640;SDS011;54434;50.096;20.082;2022-09-12T16:01:37;4.90;;;2.10;;
67640;SDS011;54434;50.096;20.082;2022-09-12T16:04:22;3.60;;;2.00;;
67640;SDS011;54434;50.096;20.082;2022-09-12T16:06:59;5.40;;;2.10;;
67640;SDS011;54434;50.096;20.082;2022-09-12T16:09:35;3.40;;;1.90;;
67640;SDS011;54434;50.096;20.082;2022-09-12T16:12:11;8.40;;;2.10;;
67640;SDS011;54434;50.096;20.082;2022-09-12T16:14:47;4.10;;;2.20;;
67640;SDS011;54434;50.096;20.082;2022-09-12T16:17:23;4.00;;;2.30;;
67640;SDS011;54434;50.096;20.082;2022-09-12T16:19:59;3.80;;;2.00;;
67640;SDS011;54434;50.096;20.082;2022-09-12T16:22:36;8.50;;;4.00;;
67640;SDS011;54434;50.096;20.082;2022-09-12T16:25:12;5.60;;;2.30;;
67640;SDS011;54434;50.096;20.082;2022-09-12T16:27:49;7.30;;;3.40;;